createdAt,value
2018-09-21T00:00:04.518Z,7.40
2018-09-21T00:02:33.017Z,9.73
2018-09-21T00:05:03.545Z,7.90
2018-09-21T00:07:32.098Z,9.20
2018-09-21T00:10:00.840Z,8.03
2018-09-21T00:12:29.561Z,7.57
2018-09-21T00:14:57.953Z,8.03
2018-09-21T00:17:26.993Z,9.20
2018-09-21T00:19:56.140Z,7.23
2018-09-21T00:22:25.369Z,7.47
2018-09-21T00:24:53.809Z,7.33
2018-09-21T00:27:24.149Z,8.13
2018-09-21T00:29:52.608Z,9.70
2018-09-21T00:32:24.877Z,8.63
2018-09-21T00:34:53.325Z,9.37
2018-09-21T00:37:22.029Z,7.93
2018-09-21T00:39:50.850Z,8.03
2018-09-21T00:42:19.419Z,8.27
2018-09-21T00:44:47.844Z,8.87
2018-09-21T00:47:16.621Z,7.63
2018-09-21T00:49:45.032Z,7.83
2018-09-21T00:52:13.619Z,8.23
2018-09-21T00:54:43.967Z,8.57
2018-09-21T00:57:12.412Z,10.93
2018-09-21T00:59:40.850Z,7.93
2018-09-21T01:02:09.241Z,8.57
2018-09-21T01:04:43.285Z,7.53
2018-09-21T01:07:13.808Z,9.00
2018-09-21T01:09:42.712Z,7.57
2018-09-21T01:12:12.244Z,9.37
2018-09-21T01:14:40.991Z,7.83
2018-09-21T01:17:09.380Z,7.80
2018-09-21T01:19:39.844Z,8.17
2018-09-21T01:22:08.616Z,7.90
2018-09-21T01:24:37.289Z,7.90
2018-09-21T01:27:05.983Z,7.87
2018-09-21T01:29:34.496Z,8.00
2018-09-21T01:34:41.494Z,9.57
2018-09-21T01:37:09.884Z,7.17
2018-09-21T01:39:38.324Z,7.87
2018-09-21T01:44:43.292Z,8.23
2018-09-21T01:47:11.782Z,10.37
2018-09-21T01:49:42.371Z,8.43
2018-09-21T01:52:11.090Z,8.43
2018-09-21T01:57:17.748Z,7.10
2018-09-21T01:59:45.899Z,7.60
2018-09-21T02:02:14.067Z,7.60
2018-09-21T02:04:42.955Z,6.50
2018-09-21T02:07:11.967Z,6.40
2018-09-21T02:09:40.355Z,8.53
2018-09-21T02:12:08.486Z,7.07
2018-09-21T02:14:37.288Z,7.80
2018-09-21T02:17:06.002Z,9.23
2018-09-21T02:19:34.640Z,7.63
2018-09-21T02:22:03.020Z,7.10
2018-09-21T02:24:31.996Z,7.93
2018-09-21T02:27:00.871Z,8.13
2018-09-21T02:29:30.425Z,11.43
2018-09-21T02:31:58.870Z,7.30
2018-09-21T02:34:27.212Z,7.57
2018-09-21T02:36:55.813Z,7.43
2018-09-21T02:39:28.096Z,10.57
2018-09-21T02:41:56.682Z,7.53
2018-09-21T02:44:25.057Z,10.50
2018-09-21T02:46:53.514Z,8.60
2018-09-21T02:49:22.300Z,7.77
2018-09-21T02:51:55.585Z,6.77
2018-09-21T02:54:24.125Z,6.47
2018-09-21T02:56:53.061Z,7.27
2018-09-21T02:59:21.544Z,7.50
2018-09-21T03:01:50.029Z,8.17
2018-09-21T03:04:18.992Z,8.13
2018-09-21T03:06:47.502Z,7.23
2018-09-21T03:09:16.156Z,8.53
2018-09-21T03:11:44.633Z,7.80
2018-09-21T03:14:13.032Z,8.30
2018-09-21T03:16:41.445Z,8.50
2018-09-21T03:19:09.882Z,9.10
2018-09-21T03:21:38.241Z,9.67
2018-09-21T03:24:07.002Z,8.57
2018-09-21T03:26:35.645Z,10.17
2018-09-21T03:29:04.083Z,7.67
2018-09-21T03:31:32.507Z,7.83
2018-09-21T03:34:01.668Z,7.73
2018-09-21T03:36:30.135Z,8.60
2018-09-21T03:38:58.913Z,7.83
2018-09-21T03:41:27.406Z,8.23
2018-09-21T03:43:55.792Z,7.50
2018-09-21T03:46:24.253Z,8.70
2018-09-21T03:48:52.701Z,11.00
2018-09-21T03:51:21.140Z,9.63
2018-09-21T03:53:49.588Z,10.43
2018-09-21T03:56:18.028Z,8.53
2018-09-21T03:58:47.241Z,9.87
2018-09-21T04:01:15.873Z,8.20
2018-09-21T04:03:44.493Z,9.53
2018-09-21T04:06:13.417Z,8.80
2018-09-21T04:08:43.813Z,7.97
2018-09-21T04:11:12.201Z,8.47
2018-09-21T04:13:40.817Z,7.60
2018-09-21T04:16:09.262Z,11.53
2018-09-21T04:18:37.666Z,8.80
2018-09-21T04:21:06.577Z,8.93
2018-09-21T04:23:35.497Z,8.97
2018-09-21T04:26:04.398Z,9.37
2018-09-21T04:28:32.772Z,8.53
2018-09-21T04:31:01.736Z,8.50
2018-09-21T04:33:30.405Z,8.63
2018-09-21T04:35:59.063Z,10.57
2018-09-21T04:38:27.630Z,10.73
2018-09-21T04:40:58.141Z,9.93
2018-09-21T04:43:27.133Z,10.03
2018-09-21T04:45:55.581Z,10.37
2018-09-21T04:48:23.964Z,10.23
2018-09-21T04:50:54.028Z,12.10
2018-09-21T04:53:22.801Z,9.77
2018-09-21T04:55:51.264Z,11.57
2018-09-21T04:58:21.615Z,14.03
2018-09-21T05:00:50.368Z,12.20
2018-09-21T05:03:18.993Z,12.03
2018-09-21T05:05:47.488Z,12.13
2018-09-21T05:08:16.134Z,11.93
2018-09-21T05:10:44.737Z,10.93
2018-09-21T05:13:13.154Z,10.60
2018-09-21T05:15:41.594Z,11.60
2018-09-21T05:18:10.337Z,10.03
2018-09-21T05:20:38.813Z,12.40
2018-09-21T05:23:07.476Z,14.93
2018-09-21T05:25:35.881Z,16.40
2018-09-21T05:28:04.397Z,16.80
2018-09-21T05:30:33.856Z,12.00
2018-09-21T05:33:02.234Z,11.00
2018-09-21T05:35:30.693Z,14.90
2018-09-21T05:37:59.382Z,15.23
2018-09-21T05:40:27.962Z,9.93
2018-09-21T05:42:56.344Z,12.77
2018-09-21T05:45:26.653Z,11.17
2018-09-21T05:47:55.008Z,8.00
2018-09-21T05:50:23.488Z,10.07
2018-09-21T05:55:29.955Z,12.37
2018-09-21T05:57:59.427Z,14.67
2018-09-21T06:00:27.869Z,13.30
2018-09-21T06:02:56.332Z,13.57
2018-09-21T06:05:24.740Z,10.67
2018-09-21T06:07:53.402Z,11.37
2018-09-21T06:10:22.064Z,10.57
2018-09-21T06:12:50.468Z,12.10
2018-09-21T06:15:18.872Z,12.63
2018-09-21T06:17:47.792Z,11.07
2018-09-21T06:20:16.289Z,10.50
2018-09-21T06:22:45.267Z,10.23
2018-09-21T06:25:13.213Z,11.23
2018-09-21T06:27:42.551Z,9.90
2018-09-21T06:30:10.924Z,11.37
2018-09-21T06:32:39.684Z,9.47
2018-09-21T06:35:11.109Z,8.47
2018-09-21T06:37:39.964Z,9.53
2018-09-21T06:40:08.616Z,9.83
2018-09-21T06:42:37.020Z,9.40
2018-09-21T06:45:05.765Z,9.70
2018-09-21T06:47:34.067Z,9.27
2018-09-21T06:50:02.529Z,10.73
2018-09-21T06:52:30.964Z,9.87
2018-09-21T06:54:59.808Z,10.87
2018-09-21T07:00:08.512Z,10.20
2018-09-21T07:02:37.060Z,9.70
2018-09-21T07:05:11.597Z,9.47
2018-09-21T07:07:40.376Z,9.67
2018-09-21T07:10:09.017Z,9.93
2018-09-21T07:12:37.392Z,10.60
2018-09-21T07:15:05.857Z,10.10
2018-09-21T07:17:34.312Z,10.63
2018-09-21T07:20:03.581Z,10.67
2018-09-21T07:22:31.988Z,8.70
2018-09-21T07:25:00.416Z,9.13
2018-09-21T07:27:28.829Z,9.77
2018-09-21T07:29:58.004Z,10.87
2018-09-21T07:32:27.104Z,10.27
2018-09-21T07:34:55.869Z,9.10
2018-09-21T07:37:24.623Z,9.27
2018-09-21T07:39:53.012Z,9.97
2018-09-21T07:42:21.401Z,7.33
2018-09-21T07:44:49.836Z,7.90
2018-09-21T07:47:18.332Z,8.87
2018-09-21T07:49:46.757Z,9.03
2018-09-21T07:52:15.629Z,8.20
2018-09-21T07:54:44.048Z,7.20
2018-09-21T07:57:12.934Z,9.20
2018-09-21T07:59:42.305Z,8.97
2018-09-21T08:02:11.052Z,8.60
2018-09-21T08:04:39.947Z,7.77
2018-09-21T08:07:09.660Z,9.37
2018-09-21T08:09:38.373Z,9.50
2018-09-21T08:12:07.368Z,8.73
2018-09-21T08:14:35.776Z,9.10
2018-09-21T08:19:48.477Z,10.97
2018-09-21T08:22:16.864Z,9.33
2018-09-21T08:24:45.388Z,8.77
2018-09-21T08:27:16.588Z,8.17
2018-09-21T08:29:45.212Z,8.00
2018-09-21T08:32:13.700Z,8.00
2018-09-21T08:34:42.196Z,7.80
2018-09-21T08:37:10.834Z,7.33
2018-09-21T08:39:39.213Z,6.37
2018-09-21T08:42:07.917Z,7.33
2018-09-21T08:44:36.338Z,7.47
2018-09-21T08:47:04.761Z,7.07
2018-09-21T08:49:33.797Z,7.30
2018-09-21T08:52:02.159Z,6.97
2018-09-21T08:54:30.564Z,6.80
2018-09-21T08:56:59.512Z,6.77
2018-09-21T08:59:28.005Z,8.37
2018-09-21T09:01:56.400Z,6.47
2018-09-21T09:04:26.892Z,6.73
2018-09-21T09:06:55.500Z,7.70
2018-09-21T09:09:23.918Z,5.97
2018-09-21T09:11:53.876Z,9.53
2018-09-21T09:14:22.221Z,6.60
2018-09-21T09:16:50.640Z,6.60
2018-09-21T09:19:19.084Z,6.00
2018-09-21T09:21:47.516Z,6.93
2018-09-21T09:24:15.956Z,7.10
2018-09-21T09:26:45.025Z,6.83
2018-09-21T09:29:14.280Z,6.70
2018-09-21T09:31:42.708Z,6.27
2018-09-21T09:34:11.406Z,6.73
2018-09-21T09:36:39.810Z,6.57
2018-09-21T09:39:12.915Z,6.30
2018-09-21T09:41:41.552Z,6.17
2018-09-21T09:44:11.561Z,7.07
2018-09-21T09:46:40.037Z,7.37
2018-09-21T09:49:09.632Z,8.30
2018-09-21T09:51:38.368Z,6.70
2018-09-21T09:54:07.070Z,8.10
2018-09-21T09:56:43.454Z,6.73
2018-09-21T09:59:11.864Z,8.60
2018-09-21T10:04:19.253Z,7.13
2018-09-21T10:06:47.712Z,7.83
2018-09-21T10:09:16.141Z,8.80
2018-09-21T10:11:44.643Z,8.63
2018-09-21T10:14:13.028Z,8.93
2018-09-21T10:16:41.575Z,8.63
2018-09-21T10:19:10.018Z,7.77
2018-09-21T10:21:38.472Z,8.27
2018-09-21T10:24:07.142Z,8.83
2018-09-21T10:26:37.126Z,6.77
2018-09-21T10:29:05.521Z,7.70
2018-09-21T10:31:45.006Z,7.20
2018-09-21T10:34:13.486Z,7.47
2018-09-21T10:36:42.043Z,7.83
2018-09-21T10:39:11.204Z,7.93
2018-09-21T10:41:39.510Z,7.00
2018-09-21T10:44:08.133Z,7.07
2018-09-21T10:46:36.848Z,7.00
2018-09-21T10:49:05.417Z,8.53
2018-09-21T10:51:33.800Z,7.50
2018-09-21T10:54:03.171Z,7.37
2018-09-21T10:56:31.618Z,6.30
2018-09-21T10:59:00.025Z,7.40
2018-09-21T11:01:28.468Z,7.53
2018-09-21T11:03:57.769Z,5.57
2018-09-21T11:06:26.236Z,7.67
2018-09-21T11:08:54.774Z,6.97
2018-09-21T11:11:23.463Z,8.60
2018-09-21T11:13:52.888Z,6.90
2018-09-21T11:16:21.316Z,6.27
2018-09-21T11:21:33.227Z,6.77
2018-09-21T11:24:03.183Z,7.63
2018-09-21T11:26:31.348Z,6.53
2018-09-21T11:28:59.531Z,7.23
2018-09-21T11:31:28.991Z,9.77
2018-09-21T11:33:57.417Z,10.13
2018-09-21T11:36:25.868Z,6.93
2018-09-21T11:38:54.288Z,7.37
2018-09-21T11:41:22.786Z,8.10
2018-09-21T11:43:51.225Z,6.57
2018-09-21T11:46:20.756Z,7.23
2018-09-21T11:48:50.318Z,6.67
2018-09-21T11:51:18.864Z,7.23
2018-09-21T11:53:47.593Z,7.80
2018-09-21T11:56:15.956Z,6.80
2018-09-21T11:58:46.142Z,7.00
2018-09-21T12:01:14.569Z,7.20
2018-09-21T12:03:43.047Z,11.07
2018-09-21T12:06:11.710Z,6.73
2018-09-21T12:08:40.448Z,7.00
2018-09-21T12:11:08.905Z,7.60
2018-09-21T12:13:37.328Z,8.17
2018-09-21T12:16:06.156Z,5.27
2018-09-21T12:18:34.597Z,5.33
2018-09-21T12:21:03.044Z,5.23
2018-09-21T12:23:32.091Z,5.37
2018-09-21T12:26:00.585Z,4.97
2018-09-21T12:28:29.126Z,4.87
2018-09-21T12:30:57.568Z,7.43
2018-09-21T12:33:26.377Z,6.40
2018-09-21T12:35:55.013Z,6.73
2018-09-21T12:38:23.512Z,5.93
2018-09-21T12:40:51.964Z,5.63
2018-09-21T12:43:20.721Z,4.93
2018-09-21T12:45:49.252Z,6.87
2018-09-21T12:48:17.660Z,6.20
2018-09-21T12:50:46.335Z,4.97
2018-09-21T12:53:14.778Z,5.87
2018-09-21T12:55:44.439Z,6.00
2018-09-21T12:58:13.020Z,4.97
2018-09-21T13:00:46.977Z,5.27
2018-09-21T13:03:15.413Z,6.47
2018-09-21T13:05:43.922Z,8.33
2018-09-21T13:08:12.412Z,8.17
2018-09-21T13:10:40.870Z,5.97
2018-09-21T13:13:09.350Z,5.10
2018-09-21T13:15:37.732Z,5.93
2018-09-21T13:18:07.312Z,6.03
2018-09-21T13:20:36.505Z,5.20
2018-09-21T13:23:06.391Z,12.40
2018-09-21T13:25:36.104Z,6.50
2018-09-21T13:28:05.090Z,5.60
2018-09-21T13:30:33.469Z,4.50
2018-09-21T13:33:02.672Z,5.63
2018-09-21T13:35:32.308Z,5.77
2018-09-21T13:38:02.107Z,5.50
2018-09-21T13:40:30.624Z,10.00
2018-09-21T13:42:59.675Z,6.53
2018-09-21T13:45:28.064Z,7.23
2018-09-21T13:47:56.505Z,6.23
2018-09-21T13:50:24.957Z,7.40
2018-09-21T13:52:53.676Z,7.13
2018-09-21T13:58:01.903Z,7.20
2018-09-21T14:00:30.452Z,6.53
2018-09-21T14:02:59.240Z,6.63
2018-09-21T14:05:27.790Z,5.37
2018-09-21T14:07:56.381Z,6.87
2018-09-21T14:10:24.895Z,5.60
2018-09-21T14:12:53.396Z,7.57
2018-09-21T14:15:22.380Z,5.43
2018-09-21T14:17:51.024Z,7.07
2018-09-21T14:20:20.632Z,6.53
2018-09-21T14:22:49.669Z,7.60
2018-09-21T14:25:18.204Z,6.10
2018-09-21T14:27:46.836Z,8.20
2018-09-21T14:30:15.358Z,7.67
2018-09-21T14:32:43.808Z,6.97
2018-09-21T14:35:12.424Z,6.87
2018-09-21T14:37:40.984Z,5.43
2018-09-21T14:40:09.672Z,7.23
2018-09-21T14:42:38.071Z,5.50
2018-09-21T14:45:06.841Z,7.50
2018-09-21T14:47:35.310Z,9.03
2018-09-21T14:50:03.902Z,7.33
2018-09-21T14:52:32.912Z,8.27
2018-09-21T14:55:01.493Z,6.27
2018-09-21T14:57:30.853Z,6.23
2018-09-21T14:59:59.457Z,8.00
2018-09-21T15:02:28.164Z,7.30
2018-09-21T15:04:56.799Z,6.73
2018-09-21T15:07:25.341Z,7.27
2018-09-21T15:09:54.153Z,6.57
2018-09-21T15:12:23.312Z,7.03
2018-09-21T15:14:52.400Z,7.73
2018-09-21T15:17:20.804Z,6.40
2018-09-21T15:19:49.276Z,6.63
2018-09-21T15:22:18.454Z,6.40
2018-09-21T15:24:46.877Z,6.47
2018-09-21T15:27:15.652Z,8.77
2018-09-21T15:29:44.703Z,7.87
2018-09-21T15:32:14.075Z,11.93
2018-09-21T15:34:43.158Z,6.20
2018-09-21T15:37:11.866Z,6.83
2018-09-21T15:39:40.911Z,5.70
2018-09-21T15:42:09.417Z,7.10
2018-09-21T15:44:38.237Z,7.30
2018-09-21T15:47:06.793Z,6.60
2018-09-21T15:49:35.311Z,9.13
2018-09-21T15:52:04.524Z,9.00
2018-09-21T15:54:33.085Z,5.20
2018-09-21T15:57:01.873Z,5.70
2018-09-21T15:59:30.492Z,5.80
2018-09-21T16:01:59.750Z,5.37
2018-09-21T16:04:28.517Z,7.23
2018-09-21T16:06:57.477Z,5.17
2018-09-21T16:09:26.867Z,5.40
2018-09-21T16:11:55.361Z,6.20
2018-09-21T16:14:24.667Z,5.90
2018-09-21T16:16:53.626Z,6.90
2018-09-21T16:19:22.405Z,7.90
2018-09-21T16:21:51.126Z,6.90
2018-09-21T16:24:20.601Z,9.37
2018-09-21T16:26:49.263Z,8.03
2018-09-21T16:29:18.068Z,7.90
2018-09-21T16:31:49.076Z,5.77
2018-09-21T16:34:17.777Z,7.73
2018-09-21T16:36:46.308Z,6.70
2018-09-21T16:39:15.416Z,6.07
2018-09-21T16:41:43.940Z,5.40
2018-09-21T16:44:12.707Z,8.17
2018-09-21T16:46:41.370Z,5.77
2018-09-21T16:49:10.117Z,10.30
2018-09-21T16:51:39.014Z,8.80
2018-09-21T16:54:07.367Z,8.03
2018-09-21T16:56:35.922Z,6.93
2018-09-21T16:59:04.397Z,5.60
2018-09-21T17:01:32.827Z,4.53
2018-09-21T17:04:01.628Z,2.23
2018-09-21T17:06:30.517Z,1.53
2018-09-21T17:09:01.204Z,2.70
2018-09-21T17:11:30.221Z,1.83
2018-09-21T17:13:59.415Z,1.73
2018-09-21T17:16:27.869Z,3.63
2018-09-21T17:18:57.466Z,1.63
2018-09-21T17:21:25.945Z,1.60
2018-09-21T17:23:54.767Z,1.93
2018-09-21T17:26:23.323Z,1.27
2018-09-21T17:28:52.185Z,1.80
2018-09-21T17:31:20.812Z,1.07
2018-09-21T17:33:49.565Z,2.70
2018-09-21T17:36:18.085Z,1.77
2018-09-21T17:38:47.048Z,1.50
2018-09-21T17:41:15.562Z,1.13
2018-09-21T17:43:44.464Z,1.80
2018-09-21T17:46:13.104Z,4.10
2018-09-21T17:48:41.775Z,1.93
2018-09-21T17:51:10.298Z,1.53
2018-09-21T17:53:39.011Z,2.73
2018-09-21T17:56:07.628Z,2.40
2018-09-21T17:58:36.427Z,9.37
2018-09-21T18:01:05.363Z,14.27
2018-09-21T18:03:33.824Z,6.73
2018-09-21T18:06:02.574Z,5.73
2018-09-21T18:08:32.200Z,3.07
2018-09-21T18:11:00.932Z,2.40
2018-09-21T18:13:29.512Z,3.37
2018-09-21T18:15:58.033Z,6.13
2018-09-21T18:18:27.064Z,4.40
2018-09-21T18:20:55.602Z,2.80
2018-09-21T18:23:24.465Z,4.70
2018-09-21T18:25:53.432Z,3.83
2018-09-21T18:28:23.730Z,3.13
2018-09-21T18:30:52.193Z,2.63
2018-09-21T18:33:20.777Z,6.40
2018-09-21T18:35:49.232Z,3.37
2018-09-21T18:38:17.644Z,6.90
2018-09-21T18:40:46.137Z,13.10
2018-09-21T18:43:15.328Z,3.90
2018-09-21T18:45:43.933Z,5.80
2018-09-21T18:48:12.456Z,6.73
2018-09-21T18:50:41.177Z,3.40
2018-09-21T18:53:10.086Z,5.13
2018-09-21T18:55:38.545Z,5.67
2018-09-21T18:58:07.030Z,3.37
2018-09-21T19:00:35.581Z,3.47
2018-09-21T19:03:04.638Z,3.27
2018-09-21T19:05:33.166Z,3.23
2018-09-21T19:08:01.754Z,3.63
2018-09-21T19:10:30.265Z,3.87
2018-09-21T19:12:59.021Z,4.67
2018-09-21T19:15:27.522Z,5.33
2018-09-21T19:17:56.619Z,2.67
2018-09-21T19:20:25.917Z,4.00
2018-09-21T19:22:54.885Z,4.93
2018-09-21T19:25:23.361Z,5.40
2018-09-21T19:27:52.329Z,6.00
2018-09-21T19:30:20.792Z,4.80
2018-09-21T19:32:49.428Z,3.10
2018-09-21T19:35:17.981Z,4.37
2018-09-21T19:37:46.656Z,3.50
2018-09-21T19:40:15.168Z,2.20
2018-09-21T19:42:43.720Z,6.00
2018-09-21T19:45:12.197Z,2.90
2018-09-21T19:47:40.920Z,6.20
2018-09-21T19:50:09.504Z,6.40
2018-09-21T19:52:37.901Z,5.87
2018-09-21T19:57:46.684Z,4.10
2018-09-21T20:00:15.454Z,3.73
2018-09-21T20:02:43.919Z,4.07
2018-09-21T20:05:12.910Z,3.97
2018-09-21T20:07:41.544Z,5.30
2018-09-21T20:10:10.025Z,2.67
2018-09-21T20:12:38.422Z,4.47
2018-09-21T20:15:07.085Z,5.13
2018-09-21T20:17:36.021Z,3.83
2018-09-21T20:20:05.972Z,4.13
2018-09-21T20:22:34.453Z,3.00
2018-09-21T20:25:03.028Z,6.07
2018-09-21T20:27:31.932Z,4.80
2018-09-21T20:30:06.590Z,4.10
2018-09-21T20:32:40.449Z,4.33
2018-09-21T20:35:08.973Z,4.40
2018-09-21T20:37:37.384Z,4.40
2018-09-21T20:40:06.531Z,3.47
2018-09-21T20:45:11.187Z,5.10
2018-09-21T20:47:39.379Z,4.27
2018-09-21T20:50:08.303Z,3.47
2018-09-21T20:52:36.964Z,5.60
2018-09-21T20:55:07.476Z,4.60
2018-09-21T21:00:12.860Z,6.07
2018-09-21T21:02:41.043Z,4.70
2018-09-21T21:05:09.209Z,5.13
2018-09-21T21:07:37.414Z,3.70
2018-09-21T21:10:05.584Z,3.33
2018-09-21T21:12:33.768Z,3.77
2018-09-21T21:15:01.947Z,7.73
2018-09-21T21:17:30.125Z,6.53
2018-09-21T21:19:58.303Z,2.77
2018-09-21T21:22:26.484Z,6.43
2018-09-21T21:24:54.656Z,5.07
2018-09-21T21:27:22.815Z,4.37
2018-09-21T21:29:51.003Z,6.63
2018-09-21T21:32:19.168Z,5.87
2018-09-21T21:34:47.355Z,4.83
2018-09-21T21:37:15.639Z,6.57
2018-09-21T21:39:44.089Z,7.70
2018-09-21T21:42:12.374Z,4.00
2018-09-21T21:44:40.531Z,7.13
2018-09-21T21:47:08.707Z,6.97
2018-09-21T21:49:36.898Z,5.87
2018-09-21T21:52:05.088Z,5.47
2018-09-21T21:54:33.255Z,4.00
2018-09-21T21:57:01.411Z,6.87
2018-09-21T21:59:29.575Z,6.60
2018-09-21T22:01:58.371Z,6.23
2018-09-21T22:04:27.048Z,6.27
2018-09-21T22:06:55.351Z,5.50
2018-09-21T22:09:23.535Z,6.07
2018-09-21T22:20:38.450Z,4.53
2018-09-21T22:23:06.643Z,5.50
2018-09-21T22:25:34.811Z,4.00
2018-09-21T22:28:02.992Z,2.53
2018-09-21T22:30:31.176Z,4.73
2018-09-21T22:32:59.357Z,3.57
2018-09-21T22:35:27.509Z,5.23
2018-09-21T22:37:55.705Z,4.13
2018-09-21T22:40:23.863Z,4.00
2018-09-21T22:42:52.059Z,3.40
2018-09-21T22:45:20.283Z,3.23
2018-09-21T22:47:48.396Z,4.37
2018-09-21T22:50:16.555Z,2.27
2018-09-21T22:52:44.759Z,3.80
2018-09-21T22:55:12.914Z,2.97
2018-09-21T22:57:41.100Z,2.90
2018-09-21T23:00:09.243Z,3.97
2018-09-21T23:02:37.431Z,1.93
2018-09-21T23:05:05.587Z,3.70
2018-09-21T23:07:33.749Z,1.93
2018-09-21T23:10:01.926Z,3.10
2018-09-21T23:12:30.103Z,2.83
2018-09-21T23:14:58.316Z,2.63
2018-09-21T23:17:26.505Z,2.93
2018-09-21T23:19:54.699Z,3.43
2018-09-21T23:22:22.899Z,2.73
2018-09-21T23:24:51.075Z,1.70
2018-09-21T23:27:19.267Z,3.40
2018-09-21T23:29:47.431Z,2.73
2018-09-21T23:32:15.620Z,2.73
2018-09-21T23:34:43.796Z,5.77
2018-09-21T23:37:11.988Z,4.73
2018-09-21T23:39:40.160Z,2.73
2018-09-21T23:42:08.341Z,5.20
2018-09-21T23:44:36.493Z,3.80
2018-09-21T23:47:04.682Z,3.57
2018-09-21T23:49:32.847Z,3.70
2018-09-21T23:52:01.043Z,1.87
2018-09-21T23:54:29.207Z,2.70
2018-09-21T23:56:57.397Z,2.47
2018-09-21T23:59:25.559Z,4.30
